Time;durP1;ratioP1;P1;durP2;ratioP2;P2;SDS_P1;SDS_P2;PMS_P1;PMS_P2;Temp;Humidity;BMP_temperature;BMP_pressure;BME280_temperature;BME280_humidity;BME280_pressure;Samples;Min_cycle;Max_cycle;Signal;HPM_P1;HPM_P2
2024/01/04 00:00:30;;;;;;;4.50;2.40;;;4.30;1.00;;;;;;5091744;28;20169;-75
2024/01/04 00:02:56;;;;;;;2.07;1.97;;;4.40;1.00;;;;;;5102159;28;20426;-74
2024/01/04 00:05:22;;;;;;;1.80;1.70;;;4.30;1.00;;;;;;5112980;28;20179;-76
2024/01/04 00:07:48;;;;;;;1.80;1.70;;;4.30;1.00;;;;;;5113262;28;20676;-75
2024/01/04 00:10:14;;;;;;;4.17;1.90;;;4.30;1.00;;;;;;5113085;28;20192;-73
2024/01/04 00:12:40;;;;;;;2.20;2.10;;;4.30;1.00;;;;;;5112161;28;20915;-75
2024/01/04 00:15:08;;;;;;;2.03;1.93;;;4.30;1.00;;;;;;5112660;28;20488;-74
2024/01/04 00:17:33;;;;;;;3.57;1.87;;;4.30;1.00;;;;;;5112342;28;20432;-74
2024/01/04 00:20:00;;;;;;;2.40;2.30;;;4.30;8.60;;;;;;5113461;28;20438;-73
2024/01/04 00:22:26;;;;;;;3.60;2.40;;;4.20;14.70;;;;;;5099955;28;20191;-78
2024/01/04 00:24:52;;;;;;;2.27;2.17;;;4.30;28.00;;;;;;5070794;28;20448;-75
2024/01/04 00:27:17;;;;;;;2.43;2.10;;;4.30;28.10;;;;;;5072111;28;20899;-78
2024/01/04 00:29:43;;;;;;;2.53;2.43;;;4.30;24.40;;;;;;5072459;28;20692;-73
2024/01/04 00:32:10;;;;;;;2.00;1.90;;;4.30;28.10;;;;;;5079100;28;20424;-74
2024/01/04 00:34:35;;;;;;;2.20;2.10;;;4.10;17.80;;;;;;5114072;28;20199;-72
2024/01/04 00:37:03;;;;;;;2.90;2.47;;;4.10;27.90;;;;;;5116359;28;20438;-76
2024/01/04 00:39:29;;;;;;;2.83;2.63;;;4.10;27.90;;;;;;5117412;28;20260;-74
2024/01/04 00:41:56;;;;;;;2.07;1.97;;;4.10;27.90;;;;;;5116753;28;20804;-74
2024/01/04 00:44:22;;;;;;;2.60;2.40;;;4.10;27.90;;;;;;5115993;28;20406;-74
2024/01/04 00:46:47;;;;;;;1.90;1.80;;;4.10;24.00;;;;;;5114336;28;20481;-75
2024/01/04 00:49:13;;;;;;;2.33;2.17;;;4.10;27.90;;;;;;5117131;28;20204;-73
2024/01/04 00:51:39;;;;;;;2.97;2.77;;;4.00;14.70;;;;;;5082388;28;20178;-74
2024/01/04 00:54:04;;;;;;;2.60;2.40;;;4.10;27.90;;;;;;5076390;28;20167;-74
2024/01/04 00:56:31;;;;;;;5.20;2.50;;;4.10;20.40;;;;;;5075423;28;20199;-73
2024/01/04 00:58:57;;;;;;;3.20;2.50;;;4.10;10.20;;;;;;5076177;28;20213;-73
2024/01/04 01:01:23;;;;;;;2.70;2.50;;;4.10;6.30;;;;;;5077393;28;20417;-75
2024/01/04 01:03:48;;;;;;;2.80;2.60;;;4.10;1.00;;;;;;5115818;28;20174;-75
2024/01/04 01:06:14;;;;;;;3.00;2.80;;;4.00;1.00;;;;;;5115289;28;20570;-72
2024/01/04 01:08:40;;;;;;;4.00;3.70;;;4.00;1.00;;;;;;5115389;28;20195;-74
2024/01/04 01:11:05;;;;;;;3.17;2.87;;;3.90;1.00;;;;;;5116513;28;20263;-73
2024/01/04 01:13:31;;;;;;;3.53;3.23;;;3.90;1.00;;;;;;5116813;28;20161;-74
2024/01/04 01:15:57;;;;;;;2.77;2.67;;;3.90;1.00;;;;;;5115070;28;20173;-78
2024/01/04 01:18:22;;;;;;;3.40;3.10;;;3.80;1.00;;;;;;5116096;28;20205;-73
2024/01/04 01:20:48;;;;;;;3.37;3.03;;;3.80;1.00;;;;;;5116546;28;20178;-77
2024/01/04 01:23:14;;;;;;;3.90;3.60;;;3.80;9.80;;;;;;5115687;28;20188;-73
2024/01/04 01:25:39;;;;;;;2.87;2.73;;;3.80;12.00;;;;;;5115517;28;20169;-74
2024/01/04 01:28:05;;;;;;;3.07;2.87;;;3.80;3.40;;;;;;5115095;28;20196;-72
2024/01/04 01:30:31;;;;;;;3.40;3.20;;;3.70;5.40;;;;;;5116042;28;20306;-73
2024/01/04 01:32:56;;;;;;;4.70;4.17;;;3.70;12.90;;;;;;5115056;28;20175;-74
2024/01/04 01:35:22;;;;;;;2.93;2.80;;;3.80;17.20;;;;;;5115308;28;20161;-76
2024/01/04 01:37:48;;;;;;;2.80;2.43;;;3.70;21.20;;;;;;5116164;28;20193;-74
2024/01/04 01:40:13;;;;;;;2.73;2.53;;;3.70;27.60;;;;;;5116192;28;20170;-75
2024/01/04 01:42:39;;;;;;;3.60;3.30;;;3.70;27.60;;;;;;5115502;28;20184;-75
2024/01/04 01:45:05;;;;;;;7.23;3.13;;;3.70;31.30;;;;;;5112806;28;20204;-74
2024/01/04 01:47:31;;;;;;;3.10;2.90;;;3.70;41.60;;;;;;5100748;28;20250;-75
2024/01/04 01:49:58;;;;;;;2.90;2.40;;;3.70;50.60;;;;;;5095589;28;20504;-75
2024/01/04 01:52:24;;;;;;;3.20;2.90;;;3.60;43.50;;;;;;5095586;28;20811;-77
2024/01/04 01:54:51;;;;;;;2.80;2.60;;;3.50;49.50;;;;;;5094607;28;21066;-75
2024/01/04 01:57:17;;;;;;;2.80;2.60;;;3.60;76.30;;;;;;5095253;28;20404;-73
2024/01/04 01:59:44;;;;;;;2.90;2.70;;;3.60;76.40;;;;;;5100645;28;20809;-76
2024/01/04 02:02:10;;;;;;;3.13;2.93;;;3.60;82.00;;;;;;5105774;28;20441;-77
2024/01/04 02:04:35;;;;;;;3.17;2.87;;;3.50;88.80;;;;;;5094343;28;20407;-76
2024/01/04 02:07:01;;;;;;;3.63;3.37;;;3.50;92.90;;;;;;5093999;28;20447;-75
2024/01/04 02:09:28;;;;;;;2.80;2.70;;;3.50;99.90;;;;;;5094943;28;20202;-74
2024/01/04 02:12:06;;;;;;;2.77;2.57;;;3.50;99.90;;;;;;5095164;28;20170;-73
2024/01/04 02:14:32;;;;;;;3.60;3.03;;;3.60;99.90;;;;;;5074111;28;20912;-79
2024/01/04 02:16:58;;;;;;;3.43;3.23;;;3.50;99.90;;;;;;5074068;28;20424;-77
2024/01/04 02:19:26;;;;;;;2.93;2.73;;;3.30;99.90;;;;;;5074501;28;20428;-76
2024/01/04 02:21:51;;;;;;;3.73;3.53;;;3.20;99.90;;;;;;5074049;28;20520;-76
2024/01/04 02:24:17;;;;;;;3.47;3.17;;;3.20;99.90;;;;;;5073669;28;20504;-75
2024/01/04 02:26:43;;;;;;;3.03;2.77;;;3.30;99.90;;;;;;5073782;28;20619;-75
2024/01/04 02:29:08;;;;;;;3.40;3.10;;;3.30;99.90;;;;;;5113257;28;20665;-75
2024/01/04 02:31:34;;;;;;;2.73;2.40;;;3.20;99.90;;;;;;5114986;28;20615;-77
2024/01/04 02:34:00;;;;;;;3.13;2.93;;;3.20;99.90;;;;;;5094539;28;20595;-79
2024/01/04 02:36:25;;;;;;;3.40;3.10;;;3.20;99.90;;;;;;5093796;28;20244;-76
2024/01/04 02:38:51;;;;;;;2.70;2.50;;;3.20;99.90;;;;;;5094344;28;20620;-76
2024/01/04 02:41:17;;;;;;;3.20;3.00;;;3.20;99.90;;;;;;5093178;28;20178;-77
2024/01/04 02:43:42;;;;;;;2.73;2.53;;;3.20;99.90;;;;;;5112097;28;20647;-74
2024/01/04 02:46:08;;;;;;;3.20;2.90;;;3.20;99.90;;;;;;5114002;28;20173;-76
2024/01/04 02:48:34;;;;;;;2.97;2.77;;;3.20;99.90;;;;;;5100875;28;20193;-77
2024/01/04 02:50:59;;;;;;;2.47;2.27;;;3.20;99.90;;;;;;5094315;28;20200;-78
2024/01/04 02:53:25;;;;;;;2.90;2.70;;;3.10;99.90;;;;;;5094435;28;20208;-78
2024/01/04 02:55:51;;;;;;;2.80;2.60;;;3.10;99.90;;;;;;5100875;28;20196;-76
2024/01/04 02:58:17;;;;;;;3.00;2.80;;;3.10;99.90;;;;;;5093691;28;20189;-76
2024/01/04 03:00:43;;;;;;;2.10;2.00;;;3.10;99.90;;;;;;5091662;28;20224;-76
2024/01/04 03:03:08;;;;;;;3.20;2.90;;;3.10;99.90;;;;;;5101455;28;20787;-74
2024/01/04 03:05:34;;;;;;;2.83;2.63;;;3.10;99.90;;;;;;5113551;28;20176;-74
2024/01/04 03:08:00;;;;;;;2.60;2.50;;;3.10;99.90;;;;;;5113093;28;20189;-75
2024/01/04 03:10:26;;;;;;;2.20;2.10;;;3.00;99.90;;;;;;5114373;28;20715;-74
2024/01/04 03:12:51;;;;;;;2.63;2.50;;;3.00;99.90;;;;;;5114533;28;20172;-74
2024/01/04 03:15:17;;;;;;;2.53;2.33;;;2.90;99.90;;;;;;5113030;28;20161;-74
2024/01/04 03:17:43;;;;;;;2.00;1.90;;;2.90;99.90;;;;;;5112817;28;20189;-73
2024/01/04 03:20:09;;;;;;;2.33;2.23;;;3.00;99.90;;;;;;5112311;28;20173;-74
2024/01/04 03:22:35;;;;;;;2.83;2.63;;;3.00;99.90;;;;;;5114351;28;20172;-74
2024/01/04 03:25:00;;;;;;;2.30;2.20;;;3.00;99.90;;;;;;5093580;28;20400;-73
2024/01/04 03:27:26;;;;;;;2.13;2.03;;;2.90;99.90;;;;;;5092439;28;20535;-73
2024/01/04 03:29:54;;;;;;;2.07;1.97;;;3.00;99.90;;;;;;5093558;28;20193;-75
2024/01/04 03:32:20;;;;;;;1.87;1.77;;;2.90;99.90;;;;;;5094178;28;20162;-74
2024/01/04 03:34:46;;;;;;;3.37;2.20;;;2.90;99.90;;;;;;5113053;28;20880;-73
2024/01/04 03:37:11;;;;;;;2.30;2.20;;;2.90;99.90;;;;;;5113337;28;20168;-74
2024/01/04 03:39:37;;;;;;;1.90;1.60;;;3.00;99.90;;;;;;5114072;28;20626;-73
2024/01/04 03:42:03;;;;;;;4.13;2.40;;;2.90;99.90;;;;;;5113911;28;20160;-73
2024/01/04 03:44:28;;;;;;;2.30;2.20;;;2.90;99.90;;;;;;5113657;28;20175;-80
2024/01/04 03:46:54;;;;;;;2.00;1.90;;;2.80;99.90;;;;;;5112922;28;20169;-76
2024/01/04 03:49:20;;;;;;;2.07;1.97;;;2.80;99.90;;;;;;5112849;28;20192;-74
2024/01/04 03:51:45;;;;;;;2.20;2.00;;;2.70;99.90;;;;;;5104902;28;20630;-76
2024/01/04 03:54:11;;;;;;;5.90;2.00;;;2.70;99.90;;;;;;5091381;28;20625;-77
2024/01/04 03:56:38;;;;;;;1.90;1.80;;;2.80;99.90;;;;;;5091193;28;20530;-74
2024/01/04 03:59:03;;;;;;;2.07;1.97;;;2.70;99.90;;;;;;5093369;28;20264;-73
2024/01/04 04:01:29;;;;;;;2.20;2.10;;;2.80;99.90;;;;;;5092073;28;20507;-74
2024/01/04 04:03:55;;;;;;;2.20;2.10;;;2.90;99.90;;;;;;5105719;28;20637;-73
2024/01/04 04:06:20;;;;;;;2.50;2.30;;;3.00;1.00;;;;;;5112684;28;20210;-76
2024/01/04 04:08:46;;;;;;;1.90;1.80;;;3.00;1.00;;;;;;5112529;28;20620;-75
2024/01/04 04:11:19;;;;;;;2.30;2.20;;;3.00;1.00;;;;;;5115668;28;20447;-76
2024/01/04 04:13:45;;;;;;;2.20;2.10;;;3.20;1.00;;;;;;5111506;28;20171;-74
2024/01/04 04:16:10;;;;;;;2.60;2.40;;;3.30;1.00;;;;;;5116847;28;20395;-73
2024/01/04 04:18:36;;;;;;;2.00;1.90;;;3.40;1.00;;;;;;5096548;28;20431;-73
2024/01/04 04:21:02;;;;;;;3.37;2.20;;;3.40;1.00;;;;;;5077039;28;20163;-73
2024/01/04 04:23:28;;;;;;;6.30;2.70;;;3.50;1.00;;;;;;5077099;28;20575;-73
2024/01/04 04:25:54;;;;;;;6.23;2.27;;;3.60;1.00;;;;;;5074839;28;20170;-74
2024/01/04 04:28:19;;;;;;;2.13;1.93;;;3.60;1.00;;;;;;5076073;28;20445;-74
2024/01/04 04:30:45;;;;;;;2.17;2.00;;;3.70;1.00;;;;;;5076676;28;20608;-75
2024/01/04 04:33:11;;;;;;;2.60;2.30;;;3.70;1.00;;;;;;5084702;28;20177;-74
2024/01/04 04:35:36;;;;;;;3.20;2.23;;;3.70;1.00;;;;;;5093916;28;20165;-74
2024/01/04 04:38:02;;;;;;;3.33;2.03;;;3.60;1.00;;;;;;5096747;28;20184;-75
2024/01/04 04:40:28;;;;;;;2.83;2.40;;;3.60;1.00;;;;;;5096486;28;20178;-75
2024/01/04 04:42:53;;;;;;;1.90;1.80;;;3.60;1.00;;;;;;5096897;28;20166;-73
2024/01/04 04:45:19;;;;;;;4.37;2.00;;;3.50;1.00;;;;;;5095966;28;20173;-74
2024/01/04 04:47:45;;;;;;;5.03;1.70;;;3.50;1.00;;;;;;5093840;28;20190;-74
2024/01/04 04:50:10;;;;;;;3.73;2.70;;;3.40;1.00;;;;;;5096491;28;20198;-74
2024/01/04 04:52:36;;;;;;;2.33;2.13;;;3.30;1.00;;;;;;5095359;28;20172;-73
2024/01/04 04:55:02;;;;;;;4.03;2.40;;;3.20;1.00;;;;;;5095808;28;20248;-73
2024/01/04 04:57:28;;;;;;;7.70;2.00;;;3.10;1.00;;;;;;5095306;28;20547;-73
2024/01/04 04:59:53;;;;;;;3.73;2.10;;;3.10;1.00;;;;;;5095280;28;20177;-73
2024/01/04 05:02:19;;;;;;;2.10;1.90;;;3.00;1.00;;;;;;5112272;28;20176;-76
2024/01/04 05:04:45;;;;;;;2.80;1.97;;;3.00;1.00;;;;;;5114753;28;20529;-77
2024/01/04 05:07:11;;;;;;;4.83;2.67;;;2.90;1.00;;;;;;5116294;28;20612;-77
2024/01/04 05:09:36;;;;;;;6.37;2.13;;;2.90;1.00;;;;;;5116354;28;20450;-75
2024/01/04 05:12:03;;;;;;;2.30;2.20;;;2.90;1.00;;;;;;5116818;28;20169;-75
2024/01/04 05:14:28;;;;;;;2.10;1.90;;;2.80;1.00;;;;;;5116526;28;20251;-80
2024/01/04 05:16:54;;;;;;;3.90;2.13;;;2.70;1.00;;;;;;5098222;28;20541;-76
2024/01/04 05:19:20;;;;;;;1.70;1.60;;;2.70;1.00;;;;;;5082822;28;20190;-76
2024/01/04 05:21:46;;;;;;;2.93;2.30;;;2.60;1.00;;;;;;5074936;28;20420;-75
2024/01/04 05:24:11;;;;;;;2.70;1.90;;;2.60;1.00;;;;;;5075268;28;20163;-75
2024/01/04 05:26:37;;;;;;;4.00;2.33;;;2.60;1.00;;;;;;5074892;28;20192;-77
2024/01/04 05:29:03;;;;;;;2.30;2.10;;;2.50;1.00;;;;;;5075527;28;20265;-75
2024/01/04 05:31:28;;;;;;;2.90;1.90;;;2.50;1.00;;;;;;5090655;28;20678;-76
2024/01/04 05:33:54;;;;;;;2.73;2.50;;;2.40;1.00;;;;;;5101203;28;20657;-76
2024/01/04 05:36:20;;;;;;;2.00;1.80;;;2.30;1.00;;;;;;5114420;28;20165;-75
2024/01/04 05:38:46;;;;;;;1.80;1.70;;;2.30;1.00;;;;;;5115023;28;20208;-76
2024/01/04 05:41:11;;;;;;;8.33;2.13;;;2.20;1.00;;;;;;5114885;28;20428;-76
2024/01/04 05:43:37;;;;;;;2.40;2.20;;;2.10;1.00;;;;;;5115467;28;20192;-75
2024/01/04 05:46:05;;;;;;;2.20;2.10;;;2.00;1.00;;;;;;5115212;28;20168;-75
2024/01/04 05:48:32;;;;;;;6.60;2.20;;;1.90;1.00;;;;;;5114806;28;20185;-76
2024/01/04 05:50:57;;;;;;;2.30;2.20;;;1.90;1.00;;;;;;5115942;28;20454;-75
2024/01/04 05:53:23;;;;;;;5.13;2.07;;;1.90;1.00;;;;;;5114650;28;20399;-74
2024/01/04 05:55:49;;;;;;;3.00;1.90;;;1.80;1.00;;;;;;5114816;28;20169;-75
2024/01/04 05:58:15;;;;;;;6.43;2.50;;;1.80;1.00;;;;;;5115843;28;20196;-74
2024/01/04 06:00:40;;;;;;;2.50;2.17;;;1.70;1.00;;;;;;5114460;28;20173;-75
2024/01/04 06:03:06;;;;;;;4.93;2.20;;;1.70;1.00;;;;;;5114975;28;20169;-74
2024/01/04 06:05:32;;;;;;;5.80;2.90;;;1.70;1.00;;;;;;5113577;28;20814;-74
2024/01/04 06:07:58;;;;;;;2.53;2.33;;;1.50;1.00;;;;;;5115666;28;20260;-75
2024/01/04 06:10:23;;;;;;;3.53;2.27;;;1.50;1.00;;;;;;5095421;28;20459;-76
2024/01/04 06:12:49;;;;;;;2.73;2.30;;;1.50;1.00;;;;;;5078794;28;20174;-76
2024/01/04 06:15:16;;;;;;;5.87;2.17;;;1.50;1.00;;;;;;5077264;28;20174;-75
2024/01/04 06:17:41;;;;;;;2.20;2.10;;;1.60;1.00;;;;;;5074817;28;20183;-75
2024/01/04 06:20:08;;;;;;;6.80;2.33;;;1.50;1.00;;;;;;5102897;28;20641;-75
2024/01/04 06:22:33;;;;;;;2.40;2.20;;;1.50;1.00;;;;;;5114705;28;20165;-75
2024/01/04 06:24:59;;;;;;;4.67;2.30;;;1.40;1.00;;;;;;5114413;28;20180;-76
2024/01/04 06:27:25;;;;;;;3.28;3.03;;;1.40;1.00;;;;;;5113882;28;20201;-76
2024/01/04 06:29:52;;;;;;;3.33;1.80;;;1.30;1.00;;;;;;5113758;28;20192;-75
2024/01/04 06:32:18;;;;;;;2.45;2.30;;;1.30;1.00;;;;;;5105562;28;20494;-74
2024/01/04 06:34:43;;;;;;;2.57;2.00;;;1.30;1.00;;;;;;5084882;28;20174;-75
2024/01/04 06:37:10;;;;;;;2.70;1.93;;;1.20;1.00;;;;;;5074331;28;20224;-74
2024/01/04 06:39:36;;;;;;;2.15;1.92;;;1.20;1.00;;;;;;5073067;28;20178;-75
2024/01/04 06:42:04;;;;;;;2.10;2.00;;;1.10;1.00;;;;;;5073720;28;20512;-75
2024/01/04 06:44:31;;;;;;;2.40;2.05;;;1.00;1.00;;;;;;5072619;28;20551;-81
2024/01/04 06:46:57;;;;;;;2.97;2.38;;;1.00;1.00;;;;;;5082846;28;20192;-71
2024/01/04 06:49:22;;;;;;;2.27;2.07;;;1.00;1.00;;;;;;5090187;28;20202;-70
2024/01/04 06:51:48;;;;;;;5.80;2.20;;;1.00;1.00;;;;;;5074215;28;20626;-69
2024/01/04 06:54:14;;;;;;;8.30;2.60;;;1.00;1.00;;;;;;5072828;28;20594;-68
2024/01/04 06:56:39;;;;;;;5.73;2.50;;;0.90;1.00;;;;;;5072183;28;20220;-68
2024/01/04 06:59:05;;;;;;;8.13;2.70;;;1.00;1.00;;;;;;5056016;28;20221;-68
2024/01/04 07:01:31;;;;;;;7.13;2.70;;;0.90;1.00;;;;;;5110511;28;20172;-68
2024/01/04 07:03:56;;;;;;;3.30;2.60;;;0.90;1.00;;;;;;5114643;28;20176;-68
2024/01/04 07:06:22;;;;;;;6.67;2.97;;;0.80;1.00;;;;;;5094345;28;20189;-71
2024/01/04 07:08:48;;;;;;;4.97;2.90;;;0.80;1.00;;;;;;5094181;28;20195;-70
2024/01/04 07:11:14;;;;;;;2.30;2.10;;;0.80;1.00;;;;;;5092821;28;20223;-70
2024/01/04 07:13:40;;;;;;;2.53;2.30;;;0.80;1.00;;;;;;5092668;28;20169;-69
2024/01/04 07:16:05;;;;;;;2.30;2.20;;;0.70;1.00;;;;;;5093365;28;20179;-71
2024/01/04 07:18:31;;;;;;;3.70;2.60;;;0.70;1.00;;;;;;5093278;28;20241;-69
2024/01/04 07:20:57;;;;;;;9.70;3.03;;;0.70;1.00;;;;;;5094148;28;20203;-68
2024/01/04 07:23:23;;;;;;;2.73;2.53;;;0.70;1.00;;;;;;5093946;28;20195;-69
2024/01/04 07:25:49;;;;;;;5.00;2.33;;;0.70;1.00;;;;;;5091860;28;20650;-69
2024/01/04 07:28:14;;;;;;;7.53;2.70;;;0.70;1.00;;;;;;5101066;28;20236;-69
2024/01/04 07:30:40;;;;;;;4.03;2.30;;;0.70;1.00;;;;;;5114208;28;20205;-69
2024/01/04 07:33:06;;;;;;;5.10;2.63;;;0.70;1.00;;;;;;5114216;28;20621;-68
2024/01/04 07:35:32;;;;;;;2.17;2.07;;;0.60;1.00;;;;;;5112242;28;20260;-68
2024/01/04 07:37:59;;;;;;;4.23;3.27;;;0.60;1.00;;;;;;5112381;28;20255;-67
2024/01/04 07:40:24;;;;;;;3.63;3.05;;;0.60;1.00;;;;;;5112874;28;20422;-67
2024/01/04 07:42:51;;;;;;;6.90;3.67;;;0.50;1.00;;;;;;5113902;28;20221;-67
2024/01/04 07:45:17;;;;;;;3.30;3.00;;;0.60;1.00;;;;;;5094377;28;20925;-67
2024/01/04 07:47:43;;;;;;;2.90;2.60;;;0.60;1.00;;;;;;5095870;28;20201;-67
2024/01/04 07:50:11;;;;;;;6.40;2.70;;;0.60;1.00;;;;;;5104170;28;20181;-67
2024/01/04 07:52:38;;;;;;;3.45;2.80;;;0.50;1.00;;;;;;5093448;28;20230;-67
2024/01/04 07:55:05;;;;;;;3.05;2.78;;;0.50;1.00;;;;;;5092776;28;20672;-74
2024/01/04 07:57:30;;;;;;;3.95;3.17;;;0.50;1.00;;;;;;5073672;28;20209;-67
2024/01/04 07:59:56;;;;;;;12.97;2.50;;;0.50;1.00;;;;;;5073323;28;20162;-67
2024/01/04 08:02:28;;;;;;;2.87;2.40;;;0.50;1.00;;;;;;5091165;28;20240;-67
2024/01/04 08:04:54;;;;;;;4.32;2.30;;;0.50;1.00;;;;;;5093757;28;20174;-66
2024/01/04 08:07:19;;;;;;;2.20;2.10;;;0.40;1.00;;;;;;5093284;28;20165;-67
2024/01/04 08:09:45;;;;;;;2.60;2.40;;;0.50;1.00;;;;;;5091826;28;20197;-68
2024/01/04 08:12:12;;;;;;;2.87;2.70;;;0.40;1.00;;;;;;5093383;28;20173;-68
2024/01/04 08:14:38;;;;;;;3.28;2.85;;;0.40;1.00;;;;;;5091901;28;20235;-71
2024/01/04 08:17:05;;;;;;;5.20;2.78;;;0.40;1.00;;;;;;5092091;28;20624;-67
2024/01/04 08:19:31;;;;;;;3.30;3.10;;;0.40;1.00;;;;;;5095426;28;20165;-68
2024/01/04 08:21:57;;;;;;;3.80;3.00;;;0.30;1.00;;;;;;5112416;28;20192;-67
2024/01/04 08:24:23;;;;;;;3.83;2.63;;;0.30;1.00;;;;;;5113328;28;20549;-79
2024/01/04 08:26:50;;;;;;;2.60;2.40;;;0.30;1.00;;;;;;5111579;28;20225;-67
2024/01/04 08:29:18;;;;;;;3.85;2.60;;;0.20;1.00;;;;;;5097101;28;20198;-68
2024/01/04 08:31:43;;;;;;;4.00;2.83;;;0.20;1.00;;;;;;5071544;28;20190;-67
2024/01/04 08:34:10;;;;;;;2.63;2.43;;;0.20;1.00;;;;;;5072188;28;20250;-70
2024/01/04 08:36:36;;;;;;;3.17;2.80;;;0.20;1.00;;;;;;5109107;28;20176;-69
2024/01/04 08:39:03;;;;;;;3.27;2.97;;;0.10;1.00;;;;;;5113224;28;20184;-68
2024/01/04 08:41:29;;;;;;;3.85;2.67;;;0.20;1.00;;;;;;5113593;28;20169;-67
2024/01/04 08:43:56;;;;;;;3.00;2.83;;;0.10;1.00;;;;;;5113375;28;20583;-68
2024/01/04 08:46:22;;;;;;;2.78;2.58;;;0.10;1.00;;;;;;5111124;28;20169;-69
2024/01/04 08:48:47;;;;;;;2.77;2.67;;;0.10;1.00;;;;;;5113308;28;20342;-69
2024/01/04 08:51:13;;;;;;;2.80;2.70;;;0.10;1.00;;;;;;5110524;28;20658;-71
2024/01/04 08:53:40;;;;;;;3.33;2.90;;;0.10;1.00;;;;;;5111255;28;20165;-70
2024/01/04 08:56:08;;;;;;;3.33;2.65;;;0.10;1.00;;;;;;5114568;28;20173;-70
2024/01/04 08:58:34;;;;;;;2.85;2.53;;;0.10;1.00;;;;;;5078982;28;20187;-69
2024/01/04 09:01:00;;;;;;;4.60;3.20;;;0.00;1.00;;;;;;5076115;28;20224;-68
2024/01/04 09:03:26;;;;;;;3.37;3.00;;;0.00;1.00;;;;;;5076353;28;20190;-69
2024/01/04 09:05:51;;;;;;;3.50;2.80;;;0.00;1.00;;;;;;5100115;28;20181;-69
2024/01/04 09:08:17;;;;;;;3.93;2.50;;;-0.10;1.00;;;;;;5116727;28;20188;-70
2024/01/04 09:10:43;;;;;;;2.90;2.70;;;0.00;1.00;;;;;;5116729;28;20288;-70
2024/01/04 09:13:09;;;;;;;2.60;2.40;;;-0.10;1.00;;;;;;5114931;28;20688;-70
2024/01/04 09:15:35;;;;;;;3.93;2.80;;;-0.10;1.00;;;;;;5115819;28;20387;-68
2024/01/04 09:18:01;;;;;;;5.25;3.17;;;0.00;1.00;;;;;;5115509;28;20181;-69
2024/01/04 09:20:26;;;;;;;2.57;2.47;;;0.00;1.00;;;;;;5115388;28;20185;-72
2024/01/04 09:22:52;;;;;;;3.33;3.07;;;-0.10;1.00;;;;;;5115188;28;20692;-68
2024/01/04 09:25:18;;;;;;;2.95;2.75;;;-0.10;1.00;;;;;;5115025;28;20263;-70
2024/01/04 09:27:44;;;;;;;4.00;3.70;;;-0.10;1.00;;;;;;5116458;28;20271;-70
2024/01/04 09:30:10;;;;;;;3.65;3.00;;;-0.10;1.00;;;;;;5114335;28;20566;-69
2024/01/04 09:32:37;;;;;;;3.38;2.90;;;-0.10;1.00;;;;;;5115992;28;20222;-68
2024/01/04 09:35:03;;;;;;;3.85;3.55;;;-0.10;1.00;;;;;;5114177;28;20169;-67
2024/01/04 09:37:28;;;;;;;3.60;2.83;;;-0.10;1.00;;;;;;5115008;28;20218;-67
2024/01/04 09:39:54;;;;;;;4.50;3.07;;;-0.10;1.00;;;;;;5116312;28;20407;-68
2024/01/04 09:42:22;;;;;;;5.50;3.50;;;-0.20;1.00;;;;;;5114935;28;20168;-71
2024/01/04 09:44:53;;;;;;;5.03;3.10;;;-0.20;1.00;;;;;;5114805;28;20586;-68
2024/01/04 09:47:22;;;;;;;6.07;3.40;;;-0.20;1.00;;;;;;5115741;28;20259;-71
2024/01/04 09:49:49;;;;;;;3.60;3.40;;;-0.20;1.00;;;;;;5114649;28;20228;-71
2024/01/04 09:52:16;;;;;;;3.08;2.88;;;-0.10;1.00;;;;;;5115882;28;20168;-69
2024/01/04 09:54:44;;;;;;;3.90;3.60;;;-0.10;1.00;;;;;;5074897;28;20174;-74
2024/01/04 09:57:10;;;;;;;3.92;3.63;;;-0.20;1.00;;;;;;5075202;28;20197;-71
2024/01/04 09:59:36;;;;;;;4.43;3.60;;;-0.20;1.00;;;;;;5075353;28;20174;-72
2024/01/04 10:02:05;;;;;;;6.90;3.30;;;-0.20;1.00;;;;;;5075227;28;20649;-70
2024/01/04 10:04:31;;;;;;;3.38;3.08;;;-0.20;1.00;;;;;;5076478;28;20173;-80
2024/01/04 10:06:59;;;;;;;4.85;3.25;;;-0.10;1.00;;;;;;5077228;28;20189;-71
2024/01/04 10:09:31;;;;;;;4.43;4.00;;;-0.10;1.00;;;;;;5074907;28;20189;-72
2024/01/04 10:11:57;;;;;;;11.05;4.07;;;0.00;1.00;;;;;;5074993;28;20173;-72
2024/01/04 10:14:27;;;;;;;4.20;3.80;;;0.00;1.00;;;;;;5074920;28;20577;-81
2024/01/04 10:16:56;;;;;;;4.80;3.95;;;-0.10;1.00;;;;;;5072790;28;20256;-74
2024/01/04 10:19:22;;;;;;;13.80;3.80;;;-0.10;1.00;;;;;;5077226;28;20197;-71
2024/01/04 10:21:49;;;;;;;3.80;3.60;;;-0.10;1.00;;;;;;5113559;28;20690;-71
2024/01/04 10:24:21;;;;;;;8.57;3.38;;;-0.10;1.00;;;;;;5115265;28;20169;-73
2024/01/04 10:26:59;;;;;;;6.65;3.55;;;0.00;1.00;;;;;;5114416;28;20215;-71
2024/01/04 10:29:26;;;;;;;4.30;3.42;;;0.00;1.00;;;;;;5115002;28;20212;-73
2024/01/04 10:32:17;;;;;;;4.18;3.78;;;-0.10;1.00;;;;;;5115158;28;20211;-72
2024/01/04 10:34:43;;;;;;;4.20;3.90;;;-0.10;1.00;;;;;;5113033;28;20302;-72
2024/01/04 10:37:22;;;;;;;3.30;3.10;;;-0.10;1.00;;;;;;5114966;28;20248;-73
2024/01/04 10:39:58;;;;;;;4.30;3.17;;;-0.10;1.00;;;;;;5113742;28;20196;-72
2024/01/04 10:42:24;;;;;;;4.85;3.88;;;0.00;1.00;;;;;;5114394;28;20236;-73
2024/01/04 10:44:54;;;;;;;4.40;4.00;;;0.00;1.00;;;;;;5114141;28;20256;-71
2024/01/04 10:47:20;;;;;;;5.50;3.30;;;-0.10;1.00;;;;;;5113439;28;20402;-71
2024/01/04 10:49:49;;;;;;;3.37;3.10;;;-0.10;1.00;;;;;;5113620;28;20217;-73
2024/01/04 10:52:19;;;;;;;4.80;2.90;;;-0.10;1.00;;;;;;5113512;28;20822;-72
2024/01/04 10:54:46;;;;;;;4.80;3.42;;;0.00;1.00;;;;;;5113915;28;20245;-72
2024/01/04 10:57:12;;;;;;;3.20;3.00;;;-0.10;1.00;;;;;;5114687;28;20153;-73
2024/01/04 10:59:40;;;;;;;4.25;3.38;;;-0.10;1.00;;;;;;5112337;28;20173;-73
2024/01/04 11:02:09;;;;;;;3.15;2.95;;;-0.10;1.00;;;;;;5114645;28;20855;-72
2024/01/04 11:04:36;;;;;;;3.45;3.15;;;-0.10;1.00;;;;;;5112554;28;20188;-73
2024/01/04 11:07:03;;;;;;;7.28;3.45;;;-0.10;1.00;;;;;;5109027;28;20253;-71
2024/01/04 11:09:34;;;;;;;4.05;3.60;;;-0.10;1.00;;;;;;5092574;28;20180;-74
2024/01/04 11:12:02;;;;;;;3.80;3.50;;;-0.10;1.00;;;;;;5093945;28;20204;-71
2024/01/04 11:14:28;;;;;;;4.53;3.25;;;0.00;1.00;;;;;;5075906;28;20174;-74
2024/01/04 11:17:13;;;;;;;2.85;2.65;;;-0.10;1.00;;;;;;5092722;28;20169;-71
2024/01/04 11:20:00;;;;;;;3.50;3.20;;;-0.10;1.00;;;;;;5111476;28;20581;-73
2024/01/04 11:22:45;;;;;;;3.45;3.20;;;-0.10;1.00;;;;;;5113095;28;20570;-72
2024/01/04 11:25:48;;;;;;;11.82;3.80;;;0.00;1.00;;;;;;5100268;28;20264;-71
2024/01/04 11:28:15;;;;;;;4.38;3.45;;;0.00;1.00;;;;;;5093825;28;20228;-75
2024/01/04 11:30:41;;;;;;;3.90;3.53;;;0.00;1.00;;;;;;5093736;28;20543;-73
2024/01/04 11:33:06;;;;;;;7.93;3.67;;;0.00;1.00;;;;;;5097559;28;20179;-76
2024/01/04 11:35:41;;;;;;;14.50;3.67;;;0.00;1.00;;;;;;5112646;28;20195;-74
2024/01/04 11:38:07;;;;;;;3.90;3.60;;;0.10;1.00;;;;;;5113852;28;20223;-74
2024/01/04 11:40:37;;;;;;;4.68;4.20;;;0.10;1.00;;;;;;5113057;28;20177;-73
2024/01/04 11:43:16;;;;;;;4.57;3.75;;;0.10;1.00;;;;;;5113944;28;20165;-74
2024/01/04 11:45:45;;;;;;;4.07;3.78;;;0.10;1.00;;;;;;5112984;28;20177;-74
2024/01/04 11:48:12;;;;;;;4.10;3.75;;;0.00;1.00;;;;;;5111461;28;20201;-72
2024/01/04 11:50:48;;;;;;;4.70;4.18;;;0.00;1.00;;;;;;5112405;28;20197;-73
2024/01/04 11:53:16;;;;;;;5.32;4.00;;;0.00;1.00;;;;;;5108994;28;20235;-73
2024/01/04 11:55:42;;;;;;;5.50;4.20;;;0.00;1.00;;;;;;5092500;28;20161;-73
2024/01/04 11:58:12;;;;;;;7.63;4.33;;;-0.10;1.00;;;;;;5092028;28;20285;-72
2024/01/04 12:00:41;;;;;;;4.43;4.03;;;-0.10;1.00;;;;;;5092158;28;20404;-72
2024/01/04 12:03:19;;;;;;;5.80;4.28;;;-0.10;1.00;;;;;;5095878;28;20255;-71
2024/01/04 12:05:50;;;;;;;3.95;3.20;;;-0.20;1.00;;;;;;5111544;28;20168;-72
2024/01/04 12:08:28;;;;;;;10.98;4.57;;;-0.10;1.00;;;;;;5113600;28;20290;-72
2024/01/04 12:10:54;;;;;;;6.00;4.45;;;-0.10;1.00;;;;;;5111922;28;20208;-79
2024/01/04 12:13:20;;;;;;;5.82;3.45;;;-0.10;1.00;;;;;;5111950;28;20169;-76
2024/01/04 12:15:46;;;;;;;8.80;4.40;;;0.00;1.00;;;;;;5112662;28;20164;-74
2024/01/04 12:18:12;;;;;;;5.13;3.30;;;-0.10;99.90;;;;;;5111025;28;20972;-73
2024/01/04 12:20:38;;;;;;;5.20;3.70;;;0.00;99.90;;;;;;5113564;28;20732;-73
2024/01/04 12:23:06;;;;;;;4.32;4.03;;;-0.10;99.90;;;;;;5113561;28;20169;-72
2024/01/04 12:25:34;;;;;;;3.97;3.67;;;-0.10;99.90;;;;;;5111331;28;20180;-73
2024/01/04 12:28:02;;;;;;;5.32;3.15;;;-0.20;99.90;;;;;;5112844;28;20224;-73
2024/01/04 12:30:29;;;;;;;6.30;3.42;;;-0.20;99.90;;;;;;5114490;28;20202;-75
2024/01/04 12:33:00;;;;;;;5.93;3.95;;;-0.20;99.90;;;;;;5116415;28;20178;-73
2024/01/04 12:35:27;;;;;;;4.75;4.00;;;-0.10;99.90;;;;;;5115310;28;20218;-73
2024/01/04 12:38:06;;;;;;;4.90;4.50;;;-0.10;99.90;;;;;;5116136;28;20209;-73
2024/01/04 12:40:42;;;;;;;7.38;3.63;;;-0.10;99.90;;;;;;5116045;28;20169;-73
2024/01/04 12:43:10;;;;;;;4.47;4.07;;;-0.10;99.90;;;;;;5116052;28;20192;-72
2024/01/04 12:45:36;;;;;;;4.00;3.60;;;-0.10;99.90;;;;;;5115168;28;20172;-73
2024/01/04 12:48:02;;;;;;;4.90;4.43;;;-0.10;99.90;;;;;;5115428;28;20603;-73
2024/01/04 12:50:34;;;;;;;3.95;3.65;;;0.00;99.90;;;;;;5108969;28;20475;-75
2024/01/04 12:53:01;;;;;;;3.33;3.05;;;0.00;99.90;;;;;;5095522;28;20174;-73
2024/01/04 12:55:27;;;;;;;5.85;5.20;;;0.00;99.90;;;;;;5094621;28;20172;-75
2024/01/04 12:57:53;;;;;;;3.83;3.63;;;0.00;99.90;;;;;;5096601;28;20194;-75
2024/01/04 13:00:19;;;;;;;3.75;3.45;;;0.10;99.90;;;;;;5095327;28;20622;-75